createdAt,value
2018-05-08T00:00:10.002Z,0
2018-05-08T00:01:18.642Z,0
2018-05-08T00:02:27.288Z,0
2018-05-08T00:03:36.204Z,0
2018-05-08T00:04:45.119Z,0
2018-05-08T00:05:53.759Z,0
2018-05-08T00:07:02.404Z,0
2018-05-08T00:08:11.052Z,0
2018-05-08T00:09:19.703Z,0
2018-05-08T00:10:28.343Z,0
2018-05-08T00:11:36.991Z,0
2018-05-08T00:12:45.632Z,0
2018-05-08T00:13:54.282Z,0
2018-05-08T00:15:02.926Z,0
2018-05-08T00:16:11.838Z,0
2018-05-08T00:17:20.477Z,0
2018-05-08T00:18:29.388Z,0
2018-05-08T00:19:38.039Z,0
2018-05-08T00:20:46.679Z,0
2018-05-08T00:21:55.330Z,0
2018-05-08T00:23:04.239Z,0
2018-05-08T00:24:12.891Z,0
2018-05-08T00:25:21.534Z,0
2018-05-08T00:26:30.183Z,0
2018-05-08T00:27:38.819Z,0
2018-05-08T00:28:47.472Z,0
2018-05-08T00:29:56.113Z,0
2018-05-08T00:31:04.764Z,0
2018-05-08T00:32:13.928Z,0
2018-05-08T00:33:22.580Z,0
2018-05-08T00:34:31.230Z,0
2018-05-08T00:35:39.879Z,0
2018-05-08T00:36:48.789Z,0
2018-05-08T00:37:57.426Z,0
2018-05-08T00:39:06.335Z,0
2018-05-08T00:40:14.976Z,0
2018-05-08T00:41:23.631Z,0
2018-05-08T00:42:32.524Z,0
2018-05-08T00:43:41.173Z,0
2018-05-08T00:44:49.815Z,0
2018-05-08T00:45:58.466Z,0
2018-05-08T00:47:07.105Z,0
2018-05-08T00:48:15.758Z,0
2018-05-08T00:49:24.403Z,0
2018-05-08T00:50:33.055Z,0
2018-05-08T00:51:41.979Z,0
2018-05-08T00:52:50.598Z,0
2018-05-08T00:53:59.238Z,0
2018-05-08T00:55:08.142Z,0
2018-05-08T00:56:16.796Z,0
2018-05-08T00:57:25.435Z,0
2018-05-08T00:58:34.079Z,0
2018-05-08T00:59:42.715Z,0
2018-05-08T01:00:51.367Z,0
2018-05-08T01:02:00.008Z,0
2018-05-08T01:03:08.655Z,0
2018-05-08T01:04:17.291Z,0
2018-05-08T01:05:25.943Z,0
2018-05-08T01:06:34.586Z,0
2018-05-08T01:07:43.234Z,0
2018-05-08T01:08:51.869Z,0
2018-05-08T01:10:00.516Z,0
2018-05-08T01:11:09.442Z,0
2018-05-08T01:12:18.087Z,0
2018-05-08T01:13:26.738Z,0
2018-05-08T01:14:35.375Z,0
2018-05-08T01:15:44.281Z,0
2018-05-08T01:16:52.924Z,0
2018-05-08T01:18:01.577Z,0
2018-05-08T01:19:10.218Z,0
2018-05-08T01:20:18.860Z,0
2018-05-08T01:21:27.505Z,0
2018-05-08T01:22:36.153Z,0
2018-05-08T01:23:44.796Z,0
2018-05-08T01:24:53.442Z,0
2018-05-08T01:26:02.085Z,0
2018-05-08T01:27:10.738Z,0
2018-05-08T01:28:19.380Z,0
2018-05-08T01:29:28.024Z,0
2018-05-08T01:30:36.935Z,0
2018-05-08T01:31:45.912Z,0
2018-05-08T01:32:54.831Z,0
2018-05-08T01:34:03.474Z,0
2018-05-08T01:35:12.118Z,0
2018-05-08T01:36:20.757Z,0
2018-05-08T01:37:29.412Z,0
2018-05-08T01:38:38.311Z,0
2018-05-08T01:39:47.226Z,0
2018-05-08T01:40:55.862Z,0
2018-05-08T01:42:04.509Z,0
2018-05-08T01:43:13.158Z,0
2018-05-08T01:44:21.796Z,0
2018-05-08T01:45:30.436Z,0
2018-05-08T01:46:39.081Z,0
2018-05-08T01:47:47.727Z,0
2018-05-08T01:48:56.371Z,0
2018-05-08T01:50:05.018Z,0
2018-05-08T01:51:13.659Z,0
2018-05-08T01:52:22.310Z,0
2018-05-08T01:53:30.956Z,0
2018-05-08T01:54:39.603Z,0
2018-05-08T01:55:48.243Z,0
2018-05-08T01:56:56.883Z,0
2018-05-08T01:58:05.527Z,0
2018-05-08T01:59:14.177Z,0
2018-05-08T02:00:22.817Z,0
2018-05-08T02:01:31.465Z,0
2018-05-08T02:02:40.108Z,0
2018-05-08T02:03:48.755Z,0
2018-05-08T02:04:57.666Z,0
2018-05-08T02:06:06.309Z,0
2018-05-08T02:07:15.228Z,0
2018-05-08T02:08:23.868Z,0
2018-05-08T02:09:32.520Z,0
2018-05-08T02:10:41.427Z,0
2018-05-08T02:11:50.072Z,0
2018-05-08T02:12:58.977Z,0
2018-05-08T02:14:07.889Z,0
2018-05-08T02:15:16.530Z,0
2018-05-08T02:16:25.175Z,0
2018-05-08T02:17:33.826Z,0
2018-05-08T02:18:42.466Z,0
2018-05-08T02:19:51.381Z,0
2018-05-08T02:21:00.024Z,0
2018-05-08T02:22:08.672Z,0
2018-05-08T02:23:17.314Z,0
2018-05-08T02:24:26.226Z,0
2018-05-08T02:25:35.128Z,0
2018-05-08T02:26:43.768Z,0
2018-05-08T02:27:52.417Z,0
2018-05-08T02:29:01.325Z,0
2018-05-08T02:30:10.239Z,0
2018-05-08T02:31:19.156Z,0
2018-05-08T02:32:28.081Z,0
2018-05-08T02:33:36.730Z,0
2018-05-08T02:34:45.374Z,0
2018-05-08T02:35:54.276Z,0
2018-05-08T02:37:02.927Z,0
2018-05-08T02:38:11.572Z,0
2018-05-08T02:39:20.216Z,0
2018-05-08T02:40:28.854Z,0
2018-05-08T02:41:37.503Z,0
2018-05-08T02:42:46.147Z,0
2018-05-08T02:43:54.794Z,0
2018-05-08T02:45:03.446Z,0
2018-05-08T02:46:12.085Z,0
2018-05-08T02:47:20.734Z,0
2018-05-08T02:48:29.384Z,0
2018-05-08T02:49:38.560Z,0
2018-05-08T02:50:47.200Z,0
2018-05-08T02:51:55.847Z,0
2018-05-08T02:53:04.494Z,0
2018-05-08T02:54:13.142Z,0
2018-05-08T02:55:22.059Z,0
2018-05-08T02:56:30.974Z,0
2018-05-08T02:57:39.616Z,0
2018-05-08T02:58:48.539Z,0
2018-05-08T02:59:57.458Z,0
2018-05-08T03:01:06.103Z,0
2018-05-08T03:02:14.746Z,0
2018-05-08T03:03:23.389Z,0
2018-05-08T03:04:32.042Z,0
2018-05-08T03:05:40.689Z,0
2018-05-08T03:06:49.601Z,0
2018-05-08T03:07:58.242Z,0
2018-05-08T03:09:07.165Z,0
2018-05-08T03:10:16.098Z,0
2018-05-08T03:11:24.715Z,0
2018-05-08T03:12:33.356Z,0
2018-05-08T03:13:42.009Z,0
2018-05-08T03:14:50.654Z,0
2018-05-08T03:15:59.305Z,0
2018-05-08T03:17:07.943Z,0
2018-05-08T03:18:16.851Z,0
2018-05-08T03:19:25.499Z,0
2018-05-08T03:20:34.146Z,0
2018-05-08T03:21:42.793Z,0
2018-05-08T03:22:51.427Z,0
2018-05-08T03:24:00.075Z,0
2018-05-08T03:25:08.714Z,0
2018-05-08T03:26:17.372Z,0
2018-05-08T03:27:26.001Z,0
2018-05-08T03:28:34.647Z,0
2018-05-08T03:29:43.286Z,0
2018-05-08T03:30:52.209Z,0
2018-05-08T03:32:00.849Z,0
2018-05-08T03:33:09.494Z,0
2018-05-08T03:34:18.136Z,0
2018-05-08T03:35:26.786Z,0
2018-05-08T03:36:35.429Z,0
2018-05-08T03:37:44.070Z,0
2018-05-08T03:38:52.979Z,0
2018-05-08T03:40:01.619Z,0
2018-05-08T03:41:10.272Z,0
2018-05-08T03:42:18.911Z,5
2018-05-08T03:43:27.825Z,5
2018-05-08T03:44:36.459Z,5
2018-05-08T03:45:45.112Z,5
2018-05-08T03:46:53.750Z,5
2018-05-08T03:48:02.397Z,5
2018-05-08T03:49:11.032Z,5
2018-05-08T03:50:19.687Z,5
2018-05-08T03:51:28.331Z,10
2018-05-08T03:52:36.977Z,10
2018-05-08T03:53:45.618Z,10
2018-05-08T03:54:54.531Z,10
2018-05-08T03:56:03.179Z,10
2018-05-08T03:57:11.826Z,10
2018-05-08T03:58:20.471Z,10
2018-05-08T03:59:29.108Z,15
2018-05-08T04:00:37.756Z,15
2018-05-08T04:01:46.715Z,15
2018-05-08T04:02:55.368Z,15
2018-05-08T04:04:04.003Z,15
2018-05-08T04:05:12.651Z,15
2018-05-08T04:06:21.300Z,20
2018-05-08T04:07:29.954Z,20
2018-05-08T04:08:38.589Z,20
2018-05-08T04:09:47.235Z,20
2018-05-08T04:10:55.876Z,20
2018-05-08T04:12:04.527Z,25
2018-05-08T04:13:13.169Z,25
2018-05-08T04:14:22.071Z,25
2018-05-08T04:15:30.791Z,25
2018-05-08T04:16:39.355Z,25
2018-05-08T04:17:48.008Z,30
2018-05-08T04:18:56.647Z,30
2018-05-08T04:20:05.301Z,30
2018-05-08T04:21:13.932Z,30
2018-05-08T04:22:22.588Z,30
2018-05-08T04:23:31.229Z,30
2018-05-08T04:24:40.139Z,35
2018-05-08T04:25:48.774Z,35
2018-05-08T04:26:57.427Z,35
2018-05-08T04:28:06.074Z,35
2018-05-08T04:29:14.980Z,35
2018-05-08T04:30:23.615Z,40
2018-05-08T04:31:32.262Z,40
2018-05-08T04:32:40.917Z,40
2018-05-08T04:33:49.828Z,40
2018-05-08T04:34:58.474Z,40
2018-05-08T04:36:07.109Z,40
2018-05-08T04:37:15.758Z,45
2018-05-08T04:38:24.397Z,45
2018-05-08T04:39:33.049Z,45
2018-05-08T04:40:41.682Z,45
2018-05-08T04:41:50.329Z,45
2018-05-08T04:42:59.229Z,50
2018-05-08T04:44:07.881Z,50
2018-05-08T04:45:16.523Z,50
2018-05-08T04:46:25.743Z,50
2018-05-08T04:47:34.739Z,50
2018-05-08T04:48:43.390Z,55
2018-05-08T04:49:52.030Z,55
2018-05-08T04:51:00.675Z,55
2018-05-08T04:52:09.318Z,55
2018-05-08T04:53:17.960Z,55
2018-05-08T04:54:26.618Z,60
2018-05-08T04:55:35.523Z,60
2018-05-08T04:56:44.170Z,60
2018-05-08T04:57:52.806Z,60
2018-05-08T04:59:01.475Z,65
2018-05-08T05:00:10.645Z,60
2018-05-08T05:01:19.294Z,60
2018-05-08T05:02:27.929Z,65
2018-05-08T05:03:36.581Z,65
2018-05-08T05:04:45.223Z,65
2018-05-08T05:05:53.871Z,70
2018-05-08T05:07:02.833Z,70
2018-05-08T05:08:11.835Z,75
2018-05-08T05:09:20.479Z,75
2018-05-08T05:10:29.395Z,75
2018-05-08T05:11:38.045Z,75
2018-05-08T05:12:46.683Z,75
2018-05-08T05:13:55.328Z,75
2018-05-08T05:15:03.971Z,80
2018-05-08T05:16:12.617Z,80
2018-05-08T05:17:21.520Z,80
2018-05-08T05:18:30.166Z,80
2018-05-08T05:19:38.807Z,85
2018-05-08T05:20:47.454Z,85
2018-05-08T05:21:56.093Z,85
2018-05-08T05:23:04.739Z,90
2018-05-08T05:24:13.645Z,90
2018-05-08T05:25:22.294Z,90
2018-05-08T05:26:30.938Z,90
2018-05-08T05:27:39.581Z,90
2018-05-08T05:28:48.223Z,90
2018-05-08T05:29:56.869Z,90
2018-05-08T05:31:05.519Z,90
2018-05-08T05:32:14.166Z,90
2018-05-08T05:33:23.074Z,90
2018-05-08T05:34:31.987Z,95
2018-05-08T05:35:40.639Z,95
2018-05-08T05:36:49.544Z,95
2018-05-08T05:37:58.189Z,95
2018-05-08T05:39:07.098Z,100
2018-05-08T05:40:15.748Z,100
2018-05-08T05:41:24.392Z,100
2018-05-08T05:42:33.085Z,100
2018-05-08T05:43:41.677Z,100
2018-05-08T05:44:50.325Z,100
2018-05-08T05:45:58.970Z,100
2018-05-08T05:47:07.624Z,105
2018-05-08T05:48:16.270Z,105
2018-05-08T05:49:24.929Z,105
2018-05-08T05:50:33.555Z,105
2018-05-08T05:51:42.202Z,105
2018-05-08T05:52:50.869Z,110
2018-05-08T05:53:59.513Z,110
2018-05-08T05:55:08.157Z,110
2018-05-08T05:56:16.803Z,110
2018-05-08T05:57:25.452Z,110
2018-05-08T05:58:34.093Z,110
2018-05-08T05:59:42.740Z,110
2018-05-08T06:00:51.383Z,110
2018-05-08T06:02:00.032Z,110
2018-05-08T06:03:08.676Z,110
2018-05-08T06:04:17.324Z,110
2018-05-08T06:05:26.245Z,110
2018-05-08T06:06:35.454Z,110
2018-05-08T06:07:44.102Z,110
2018-05-08T06:08:52.745Z,115
2018-05-08T06:10:01.389Z,115
2018-05-08T06:11:10.038Z,115
2018-05-08T06:12:18.680Z,115
2018-05-08T06:13:27.325Z,115
2018-05-08T06:14:35.972Z,115
2018-05-08T06:15:44.894Z,115
2018-05-08T06:16:53.800Z,115
2018-05-08T06:18:02.452Z,115
2018-05-08T06:19:11.100Z,120
2018-05-08T06:20:19.773Z,120
2018-05-08T06:21:28.399Z,120
2018-05-08T06:22:37.044Z,120
2018-05-08T06:23:45.693Z,120
2018-05-08T06:24:54.341Z,120
2018-05-08T06:26:03.005Z,120
2018-05-08T06:27:11.652Z,120
2018-05-08T06:28:20.295Z,120
2018-05-08T06:29:28.935Z,125
2018-05-08T06:30:38.143Z,125
2018-05-08T06:31:46.789Z,125
2018-05-08T06:32:55.710Z,125
2018-05-08T06:34:04.347Z,125
2018-05-08T06:35:13.271Z,125
2018-05-08T06:36:21.915Z,125
2018-05-08T06:37:30.566Z,125
2018-05-08T06:38:39.211Z,125
2018-05-08T06:39:47.859Z,130
2018-05-08T06:40:56.514Z,130
2018-05-08T06:42:05.165Z,130
2018-05-08T06:43:14.343Z,130
2018-05-08T06:44:23.048Z,130
2018-05-08T06:45:31.631Z,130
2018-05-08T06:46:40.291Z,130
2018-05-08T06:47:49.299Z,130
2018-05-08T06:48:57.936Z,130
2018-05-08T06:50:06.583Z,125
2018-05-08T06:51:15.231Z,130
2018-05-08T06:52:23.885Z,125
2018-05-08T06:53:32.528Z,130
2018-05-08T06:54:41.196Z,130
2018-05-08T06:55:49.849Z,130
2018-05-08T06:56:58.496Z,130
2018-05-08T06:58:07.405Z,130
2018-05-08T06:59:16.054Z,130
2018-05-08T07:00:24.696Z,130
2018-05-08T07:01:33.617Z,130
2018-05-08T07:02:42.264Z,130
2018-05-08T07:03:50.909Z,130
2018-05-08T07:04:59.559Z,130
2018-05-08T07:06:08.205Z,135
2018-05-08T07:07:18.146Z,135
2018-05-08T07:08:27.100Z,135
2018-05-08T07:09:35.751Z,135
2018-05-08T07:10:44.391Z,135
2018-05-08T07:11:53.050Z,135
2018-05-08T07:13:01.965Z,135
2018-05-08T07:14:10.618Z,135
2018-05-08T07:15:19.255Z,135
2018-05-08T07:16:27.907Z,135
2018-05-08T07:17:36.559Z,140
2018-05-08T07:18:45.482Z,135
2018-05-08T07:19:54.131Z,140
2018-05-08T07:21:02.772Z,140
2018-05-08T07:22:11.428Z,140
2018-05-08T07:23:20.071Z,140
2018-05-08T07:24:28.727Z,140
2018-05-08T07:25:37.365Z,140
2018-05-08T07:26:46.021Z,140
2018-05-08T07:27:54.664Z,140
2018-05-08T07:29:03.322Z,140
2018-05-08T07:30:12.337Z,140
2018-05-08T07:31:20.990Z,140
2018-05-08T07:32:29.634Z,140
2018-05-08T07:33:38.571Z,140
2018-05-08T07:34:47.223Z,145
2018-05-08T07:35:55.866Z,145
2018-05-08T07:37:04.516Z,145
2018-05-08T07:38:13.179Z,145
2018-05-08T07:39:21.829Z,145
2018-05-08T07:40:30.473Z,145
2018-05-08T07:41:39.129Z,145
2018-05-08T07:42:47.762Z,145
2018-05-08T07:43:56.420Z,140
2018-05-08T07:45:05.085Z,140
2018-05-08T07:46:14.003Z,140
2018-05-08T07:47:22.642Z,140
2018-05-08T07:48:31.299Z,140
2018-05-08T07:49:40.223Z,145
2018-05-08T07:50:48.886Z,145
2018-05-08T07:51:57.520Z,145
2018-05-08T07:53:06.177Z,145
2018-05-08T07:54:14.836Z,145
2018-05-08T07:55:23.480Z,145
2018-05-08T07:56:32.404Z,145
2018-05-08T07:57:41.096Z,145
2018-05-08T07:58:49.698Z,145
2018-05-08T07:59:58.340Z,150
2018-05-08T08:01:06.999Z,150
2018-05-08T08:02:15.636Z,150
2018-05-08T08:03:24.305Z,150
2018-05-08T08:04:33.009Z,150
2018-05-08T08:05:41.589Z,150
2018-05-08T08:06:50.233Z,150
2018-05-08T08:07:58.883Z,150
2018-05-08T08:09:07.532Z,155
2018-05-08T08:10:16.184Z,155
2018-05-08T08:11:24.837Z,155
2018-05-08T08:12:33.483Z,155
2018-05-08T08:13:42.128Z,155
2018-05-08T08:14:50.778Z,155
2018-05-08T08:15:59.434Z,155
2018-05-08T08:17:08.085Z,155
2018-05-08T08:18:16.740Z,155
2018-05-08T08:19:25.651Z,155
2018-05-08T08:20:34.306Z,155
2018-05-08T08:21:42.956Z,155
2018-05-08T08:22:51.607Z,155
2018-05-08T08:24:00.251Z,155
2018-05-08T08:25:08.905Z,155
2018-05-08T08:26:17.559Z,155
2018-05-08T08:27:26.213Z,155
2018-05-08T08:28:35.217Z,160
2018-05-08T08:29:44.258Z,160
2018-05-08T08:30:52.849Z,160
2018-05-08T08:32:01.502Z,160
2018-05-08T08:33:10.417Z,160
2018-05-08T08:34:19.063Z,160
2018-05-08T08:35:27.712Z,160
2018-05-08T08:36:36.362Z,160
2018-05-08T08:37:45.025Z,160
2018-05-08T08:38:53.670Z,165
2018-05-08T08:40:02.321Z,165
2018-05-08T08:41:11.233Z,165
2018-05-08T08:42:19.889Z,165
2018-05-08T08:43:28.529Z,165
2018-05-08T08:44:37.186Z,165
2018-05-08T08:45:45.839Z,165
2018-05-08T08:46:54.497Z,160
2018-05-08T08:48:03.150Z,160
2018-05-08T08:49:11.800Z,165
2018-05-08T08:50:20.448Z,165
2018-05-08T08:51:29.358Z,165
2018-05-08T08:52:38.011Z,165
2018-05-08T08:53:46.664Z,165
2018-05-08T08:54:55.316Z,165
2018-05-08T08:56:03.995Z,165
2018-05-08T08:57:12.620Z,165
2018-05-08T08:58:21.275Z,165
2018-05-08T08:59:29.924Z,165
2018-05-08T09:00:38.570Z,165
2018-05-08T09:01:47.233Z,165
2018-05-08T09:02:55.875Z,165
2018-05-08T09:04:04.583Z,165
2018-05-08T09:05:13.169Z,165
2018-05-08T09:06:21.823Z,165
2018-05-08T09:07:30.482Z,165
2018-05-08T09:08:39.131Z,165
2018-05-08T09:09:47.784Z,165
2018-05-08T09:10:56.688Z,165
2018-05-08T09:12:05.344Z,165
2018-05-08T09:13:14.078Z,165
2018-05-08T09:14:22.652Z,165
2018-05-08T09:15:31.298Z,170
2018-05-08T09:16:40.220Z,165
2018-05-08T09:17:48.867Z,165
2018-05-08T09:18:57.528Z,165
2018-05-08T09:20:06.431Z,165
2018-05-08T09:21:15.090Z,165
2018-05-08T09:22:23.737Z,170
2018-05-08T09:23:32.402Z,165
2018-05-08T09:24:41.043Z,170
2018-05-08T09:25:49.690Z,165
2018-05-08T09:26:58.603Z,165
2018-05-08T09:28:07.254Z,165
2018-05-08T09:29:15.912Z,165
2018-05-08T09:30:24.559Z,165
2018-05-08T09:31:33.211Z,165
2018-05-08T09:32:41.853Z,165
2018-05-08T09:33:50.781Z,170
2018-05-08T09:34:59.428Z,165
2018-05-08T09:36:08.350Z,170
2018-05-08T09:37:17.256Z,170
2018-05-08T09:38:25.916Z,170
2018-05-08T09:39:34.567Z,170
2018-05-08T09:40:43.482Z,170
2018-05-08T09:41:52.127Z,170
2018-05-08T09:43:01.068Z,170
2018-05-08T09:44:09.725Z,170
2018-05-08T09:45:18.382Z,170
2018-05-08T09:46:27.035Z,170
2018-05-08T09:47:35.676Z,170
2018-05-08T09:48:44.650Z,175
2018-05-08T09:49:53.267Z,170
2018-05-08T09:51:01.939Z,170
2018-05-08T09:52:10.854Z,175
2018-05-08T09:53:19.773Z,175
2018-05-08T09:54:28.418Z,175
2018-05-08T09:55:40.260Z,175
2018-05-08T09:56:53.054Z,175
2018-05-08T09:58:01.720Z,175
2018-05-08T09:59:10.636Z,175
2018-05-08T10:00:19.324Z,175
2018-05-08T10:01:28.241Z,175
2018-05-08T10:02:36.891Z,175
2018-05-08T10:03:45.817Z,175
2018-05-08T10:04:54.487Z,175
2018-05-08T10:06:03.123Z,175
2018-05-08T10:07:11.780Z,175
2018-05-08T10:08:20.962Z,175
2018-05-08T10:09:29.624Z,175
2018-05-08T10:10:38.265Z,180
2018-05-08T10:11:46.924Z,180
2018-05-08T10:12:55.834Z,180
2018-05-08T10:14:04.503Z,180
2018-05-08T10:15:13.144Z,180
2018-05-08T10:16:21.798Z,180
2018-05-08T10:17:30.448Z,180
2018-05-08T10:18:39.109Z,180
2018-05-08T10:19:47.763Z,185
2018-05-08T10:20:56.411Z,180
2018-05-08T10:22:05.063Z,180
2018-05-08T10:23:13.709Z,180
2018-05-08T10:24:22.379Z,180
2018-05-08T10:25:31.284Z,180
2018-05-08T10:26:40.223Z,180
2018-05-08T10:27:49.117Z,180
2018-05-08T10:28:57.779Z,180
2018-05-08T10:30:06.704Z,180
2018-05-08T10:31:15.362Z,180
2018-05-08T10:32:24.271Z,180
2018-05-08T10:33:32.936Z,185
2018-05-08T10:34:41.594Z,190
2018-05-08T10:35:50.241Z,185
2018-05-08T10:36:58.886Z,185
2018-05-08T10:38:07.541Z,185
2018-05-08T10:39:16.201Z,185
2018-05-08T10:40:24.855Z,185
2018-05-08T10:41:33.782Z,185
2018-05-08T10:42:42.510Z,190
2018-05-08T10:43:51.080Z,190
2018-05-08T10:44:59.729Z,190
2018-05-08T10:46:08.390Z,190
2018-05-08T10:47:17.306Z,190
2018-05-08T10:48:25.964Z,190
2018-05-08T10:49:34.611Z,190
2018-05-08T10:50:43.282Z,190
2018-05-08T10:51:52.189Z,195
2018-05-08T10:53:00.845Z,195
2018-05-08T10:54:09.770Z,190
2018-05-08T10:55:18.433Z,195
2018-05-08T10:56:27.086Z,190
2018-05-08T10:57:35.997Z,190
2018-05-08T10:58:44.649Z,190
2018-05-08T10:59:53.302Z,190
2018-05-08T11:01:01.963Z,190
2018-05-08T11:02:10.646Z,190
2018-05-08T11:03:19.300Z,190
2018-05-08T11:04:27.952Z,195
2018-05-08T11:05:36.611Z,195
2018-05-08T11:06:45.534Z,195
2018-05-08T11:07:54.189Z,195
2018-05-08T11:09:02.838Z,195
2018-05-08T11:10:11.496Z,195
2018-05-08T11:11:20.148Z,195
2018-05-08T11:12:28.900Z,195
2018-05-08T11:13:37.456Z,195
2018-05-08T11:14:46.112Z,195
2018-05-08T11:15:54.778Z,195
2018-05-08T11:17:03.422Z,195
2018-05-08T11:18:12.082Z,195
2018-05-08T11:19:20.729Z,195
2018-05-08T11:20:29.383Z,195
2018-05-08T11:21:38.039Z,195
2018-05-08T11:22:46.957Z,195
2018-05-08T11:23:55.872Z,195
2018-05-08T11:25:04.526Z,195
2018-05-08T11:26:13.182Z,195
2018-05-08T11:27:21.842Z,195
2018-05-08T11:28:30.491Z,200
2018-05-08T11:29:39.416Z,195
2018-05-08T11:30:48.066Z,195
2018-05-08T11:31:56.726Z,195
2018-05-08T11:33:05.444Z,195
2018-05-08T11:34:14.036Z,195
2018-05-08T11:35:22.955Z,195
2018-05-08T11:36:31.607Z,195
2018-05-08T11:37:40.265Z,195
2018-05-08T11:38:48.922Z,195
2018-05-08T11:39:57.577Z,195
2018-05-08T11:41:06.226Z,195
2018-05-08T11:42:14.886Z,195
2018-05-08T11:43:23.825Z,195
2018-05-08T11:44:32.479Z,195
2018-05-08T11:45:41.131Z,195
2018-05-08T11:46:49.793Z,200
2018-05-08T11:47:58.441Z,195
2018-05-08T11:49:07.097Z,195
2018-05-08T11:50:15.747Z,195
2018-05-08T11:51:24.405Z,195
2018-05-08T11:52:33.060Z,195
2018-05-08T11:53:41.719Z,195
2018-05-08T11:54:50.374Z,195
2018-05-08T11:55:59.291Z,195
2018-05-08T11:57:07.946Z,195
2018-05-08T11:58:16.603Z,195
2018-05-08T11:59:25.529Z,195
2018-05-08T12:00:34.188Z,195
2018-05-08T12:01:42.845Z,195
2018-05-08T12:02:51.499Z,195
2018-05-08T12:04:00.144Z,195
2018-05-08T12:05:08.809Z,195
2018-05-08T12:06:17.457Z,195
2018-05-08T12:07:26.374Z,195
2018-05-08T12:08:35.018Z,195
2018-05-08T12:09:43.942Z,200
2018-05-08T12:10:52.605Z,195
2018-05-08T12:12:01.524Z,195
2018-05-08T12:13:10.191Z,195
2018-05-08T12:14:18.829Z,200
2018-05-08T12:15:27.487Z,195
2018-05-08T12:16:36.135Z,195
2018-05-08T12:17:44.799Z,195
2018-05-08T12:18:53.445Z,195
2018-05-08T12:20:02.111Z,195
2018-05-08T12:21:11.020Z,200
2018-05-08T12:22:19.686Z,195
2018-05-08T12:23:28.326Z,195
2018-05-08T12:24:36.984Z,195
2018-05-08T12:25:45.636Z,195
2018-05-08T12:26:54.304Z,195
2018-05-08T12:28:02.956Z,195
2018-05-08T12:29:11.608Z,195
2018-05-08T12:30:20.262Z,195
2018-05-08T12:31:28.918Z,195
2018-05-08T12:32:37.603Z,195
2018-05-08T12:33:46.250Z,195
2018-05-08T12:34:54.909Z,195
2018-05-08T12:36:03.823Z,195
2018-05-08T12:37:12.487Z,195
2018-05-08T12:38:21.139Z,195
2018-05-08T12:39:30.060Z,195
2018-05-08T12:40:38.704Z,195
2018-05-08T12:41:47.635Z,195
2018-05-08T12:42:56.292Z,195
2018-05-08T12:44:04.947Z,195
2018-05-08T12:45:13.859Z,200
2018-05-08T12:46:22.514Z,195
2018-05-08T12:47:31.189Z,195
2018-05-08T12:48:39.845Z,195
2018-05-08T12:49:48.500Z,195
2018-05-08T12:50:57.149Z,200
2018-05-08T12:52:06.072Z,195
2018-05-08T12:53:14.732Z,195
2018-05-08T12:54:23.661Z,195
2018-05-08T12:55:32.570Z,195
2018-05-08T12:56:41.229Z,195
2018-05-08T12:57:50.405Z,195
2018-05-08T12:58:59.160Z,195
2018-05-08T13:00:07.720Z,195
2018-05-08T13:01:16.381Z,200
2018-05-08T13:02:25.305Z,195
2018-05-08T13:03:33.965Z,195
2018-05-08T13:04:42.618Z,190
2018-05-08T13:05:51.266Z,190
2018-05-08T13:06:59.917Z,190
2018-05-08T13:08:08.582Z,195
2018-05-08T13:09:17.238Z,195
2018-05-08T13:10:25.895Z,195
2018-05-08T13:11:34.549Z,195
2018-05-08T13:12:43.199Z,195
2018-05-08T13:13:51.857Z,195
2018-05-08T13:15:00.511Z,195
2018-05-08T13:16:09.165Z,195
2018-05-08T13:17:17.817Z,195
2018-05-08T13:18:26.850Z,195
2018-05-08T13:19:35.502Z,195
2018-05-08T13:20:44.163Z,195
2018-05-08T13:21:52.813Z,195
2018-05-08T13:23:01.476Z,195
2018-05-08T13:24:10.742Z,195
2018-05-08T13:25:19.324Z,195
2018-05-08T13:26:27.980Z,195
2018-05-08T13:27:36.897Z,195
2018-05-08T13:28:45.818Z,190
2018-05-08T13:29:54.474Z,195
2018-05-08T13:31:03.200Z,195
2018-05-08T13:32:11.791Z,200
2018-05-08T13:33:20.713Z,190
2018-05-08T13:34:29.366Z,190
2018-05-08T13:35:38.028Z,190
2018-05-08T13:36:46.679Z,190
2018-05-08T13:37:55.338Z,190
2018-05-08T13:39:03.989Z,190
2018-05-08T13:40:12.651Z,190
2018-05-08T13:41:21.305Z,190
2018-05-08T13:42:29.960Z,190
2018-05-08T13:43:38.880Z,190
2018-05-08T13:44:47.532Z,190
2018-05-08T13:45:56.192Z,190
2018-05-08T13:47:04.847Z,190
2018-05-08T13:48:13.585Z,185
2018-05-08T13:49:22.156Z,185
2018-05-08T13:50:30.815Z,185
2018-05-08T13:51:39.737Z,185
2018-05-08T13:52:48.392Z,185
2018-05-08T13:53:57.045Z,185
2018-05-08T13:55:06.377Z,185
2018-05-08T13:56:14.961Z,180
2018-05-08T13:57:23.884Z,180
2018-05-08T13:58:32.548Z,180
2018-05-08T13:59:41.200Z,180
2018-05-08T14:00:50.194Z,175
2018-05-08T14:01:58.768Z,175
2018-05-08T14:03:07.420Z,175
2018-05-08T14:04:16.083Z,175
2018-05-08T14:05:24.735Z,175
2018-05-08T14:06:33.395Z,175
2018-05-08T14:07:42.039Z,175
2018-05-08T14:08:50.699Z,175
2018-05-08T14:09:59.361Z,175
2018-05-08T14:11:08.018Z,170
2018-05-08T14:12:16.677Z,170
2018-05-08T14:13:25.336Z,170
2018-05-08T14:14:33.989Z,170
2018-05-08T14:15:42.925Z,170
2018-05-08T14:16:51.579Z,170
2018-05-08T14:18:00.237Z,165
2018-05-08T14:19:08.895Z,165
2018-05-08T14:20:17.818Z,165
2018-05-08T14:21:26.476Z,165
2018-05-08T14:22:35.132Z,165
2018-05-08T14:23:43.779Z,160
2018-05-08T14:24:52.456Z,160
2018-05-08T14:26:01.093Z,160
2018-05-08T14:27:09.743Z,160
2018-05-08T14:28:18.396Z,160
2018-05-08T14:29:27.053Z,160
2018-05-08T14:30:35.711Z,155
2018-05-08T14:31:44.420Z,155
2018-05-08T14:32:53.022Z,155
2018-05-08T14:34:01.675Z,155
2018-05-08T14:35:10.339Z,155
2018-05-08T14:36:18.992Z,150
2018-05-08T14:37:27.648Z,155
2018-05-08T14:38:36.417Z,155
2018-05-08T14:39:44.959Z,155
2018-05-08T14:40:53.619Z,155
2018-05-08T14:42:02.278Z,155
2018-05-08T14:43:11.202Z,155
2018-05-08T14:44:19.855Z,150
2018-05-08T14:45:28.517Z,150
2018-05-08T14:46:37.171Z,150
2018-05-08T14:47:45.834Z,150
2018-05-08T14:48:54.751Z,150
2018-05-08T14:50:03.407Z,150
2018-05-08T14:51:12.322Z,150
2018-05-08T14:52:21.246Z,145
2018-05-08T14:53:29.897Z,145
2018-05-08T14:54:38.832Z,145
2018-05-08T14:55:47.485Z,145
2018-05-08T14:56:56.143Z,145
2018-05-08T14:58:04.798Z,145
2018-05-08T14:59:13.443Z,140
2018-05-08T15:00:22.366Z,140
2018-05-08T15:01:31.016Z,140
2018-05-08T15:02:39.681Z,140
2018-05-08T15:03:48.327Z,140
2018-05-08T15:04:57.258Z,135
2018-05-08T15:06:05.909Z,140
2018-05-08T15:07:14.572Z,135
2018-05-08T15:08:23.215Z,135
2018-05-08T15:09:31.872Z,135
2018-05-08T15:10:40.524Z,135
2018-05-08T15:11:49.260Z,135
2018-05-08T15:12:57.839Z,135
2018-05-08T15:14:06.494Z,135
2018-05-08T15:15:15.411Z,135
2018-05-08T15:16:24.063Z,135
2018-05-08T15:17:32.726Z,135
2018-05-08T15:18:41.375Z,135
2018-05-08T15:19:50.301Z,135
2018-05-08T15:20:58.946Z,135
2018-05-08T15:22:07.608Z,130
2018-05-08T15:23:16.261Z,135
2018-05-08T15:24:24.923Z,135
2018-05-08T15:25:33.833Z,130
2018-05-08T15:26:42.498Z,130
2018-05-08T15:27:51.151Z,130
2018-05-08T15:28:59.891Z,130
2018-05-08T15:30:08.453Z,130
2018-05-08T15:31:17.116Z,130
2018-05-08T15:32:25.779Z,130
2018-05-08T15:33:34.433Z,130
2018-05-08T15:34:43.144Z,130
2018-05-08T15:35:52.056Z,130
2018-05-08T15:37:00.727Z,130
2018-05-08T15:38:09.365Z,125
2018-05-08T15:39:18.029Z,125
2018-05-08T15:40:26.676Z,125
2018-05-08T15:41:35.335Z,125
2018-05-08T15:42:43.985Z,125
2018-05-08T15:43:52.654Z,120
2018-05-08T15:45:01.296Z,120
2018-05-08T15:46:09.957Z,120
2018-05-08T15:47:18.922Z,120
2018-05-08T15:48:27.836Z,120
2018-05-08T15:49:36.485Z,120
2018-05-08T15:50:45.136Z,115
2018-05-08T15:51:53.789Z,115
2018-05-08T15:53:02.439Z,115
2018-05-08T15:54:11.106Z,115
2018-05-08T15:55:19.824Z,110
2018-05-08T15:56:28.414Z,110
2018-05-08T15:57:37.064Z,110
2018-05-08T15:58:45.720Z,110
2018-05-08T15:59:54.375Z,110
2018-05-08T16:01:03.028Z,105
2018-05-08T16:02:11.740Z,105
2018-05-08T16:03:20.338Z,105
2018-05-08T16:04:28.989Z,105
2018-05-08T16:05:37.644Z,105